Denholm, Canada
Current Conditions -  °F | °C
As of 2:00 PM on Wednesday 17 Dec 2014 (Local Time) from CYQW Reporting Station
Overcast Overcast  
Wind Chill:   Ceiling: 700
Heat Index: 18°   Visibility: 9mi
Dew Point: 16°   Wind: 14mph
Humidity: 93%   Direction: 130°SE
Pressure: 30"   Gusts: NA
Location:  52.65°N, 108.02°W
Report Text: CYQW 172000Z AUTO 13012KT 9SM OVC007 M08/M09 A3000 RMK SLP196
Loading
Personal Weather Stations






























Interactive Weather Map New forecast layout! Learn more

10-Day Weather Forecast

Advertisements
Track Severe Weather on mobile